createdAt,value
2023-04-30T00:00:03.302Z,100646.06
2023-04-30T00:00:34.785Z,100646.88
2023-04-30T00:01:06.178Z,100649.28
2023-04-30T00:01:37.800Z,100646.19
2023-04-30T00:02:09.454Z,100651.13
2023-04-30T00:02:41.160Z,100645.75
2023-04-30T00:03:12.790Z,100652.25
2023-04-30T00:03:47.255Z,100650.84
2023-04-30T00:04:18.754Z,100645.69
2023-04-30T00:04:50.229Z,100648.66
2023-04-30T00:05:21.706Z,100649.66
2023-04-30T00:05:53.209Z,100647.72
2023-04-30T00:06:26.236Z,100644.25
2023-04-30T00:06:59.781Z,100653.56
2023-04-30T00:07:31.215Z,100645.06
2023-04-30T00:08:02.752Z,100646.94
2023-04-30T00:08:34.204Z,100648.66
2023-04-30T00:09:05.618Z,100645.38
2023-04-30T00:09:37.003Z,100643.28
2023-04-30T00:10:08.611Z,100647.31
2023-04-30T00:10:40.229Z,100650.81
2023-04-30T00:11:11.776Z,100646.75
2023-04-30T00:11:43.276Z,100649.47
2023-04-30T00:12:14.756Z,100646.50
2023-04-30T00:12:46.201Z,100639.75
2023-04-30T00:13:17.726Z,100646.50
2023-04-30T00:13:49.128Z,100649.22
2023-04-30T00:14:20.605Z,100641.06
2023-04-30T00:14:52.007Z,100639.38
2023-04-30T00:15:23.459Z,100643.41
2023-04-30T00:15:55.296Z,100627.00
2023-04-30T00:16:26.829Z,100641.47
2023-04-30T00:17:01.168Z,100642.28
2023-04-30T00:17:32.716Z,100645.25
2023-04-30T00:18:06.739Z,100639.13
2023-04-30T00:18:38.157Z,100640.19
2023-04-30T00:19:09.725Z,100645.88
2023-04-30T00:19:41.205Z,100642.97
2023-04-30T00:20:12.680Z,100644.28
2023-04-30T00:20:44.145Z,100644.88
2023-04-30T00:21:15.669Z,100644.03
2023-04-30T00:21:47.145Z,100643.47
2023-04-30T00:22:18.684Z,100643.72
2023-04-30T00:22:50.176Z,100638.34
2023-04-30T00:23:21.614Z,100641.38
2023-04-30T00:23:53.084Z,100640.56
2023-04-30T00:24:27.243Z,100648.41
2023-04-30T00:24:58.692Z,100640.50
2023-04-30T00:25:30.119Z,100644.09
2023-04-30T00:26:01.503Z,100643.84
2023-04-30T00:26:32.982Z,100643.78
2023-04-30T00:27:04.530Z,100639.50
2023-04-30T00:27:35.906Z,100641.13
2023-04-30T00:28:07.310Z,100649.28
2023-04-30T00:28:38.699Z,100644.97
2023-04-30T00:29:10.139Z,100644.41
2023-04-30T00:29:41.560Z,100647.63
2023-04-30T00:30:12.990Z,100648.47
2023-04-30T00:30:44.587Z,100650.59
2023-04-30T00:31:16.041Z,100644.03
2023-04-30T00:31:47.606Z,100650.25
2023-04-30T00:32:19.103Z,100644.56
2023-04-30T00:32:50.632Z,100646.44
2023-04-30T00:33:25.047Z,100657.88
2023-04-30T00:33:56.608Z,100652.94
2023-04-30T00:34:28.096Z,100653.25
2023-04-30T00:34:59.565Z,100651.44
2023-04-30T00:35:30.989Z,100649.09
2023-04-30T00:36:02.475Z,100651.25
2023-04-30T00:36:33.938Z,100658.00
2023-04-30T00:37:05.435Z,100654.28
2023-04-30T00:37:36.895Z,100649.72
2023-04-30T00:38:08.302Z,100656.81
2023-04-30T00:38:39.737Z,100659.47
2023-04-30T00:39:11.161Z,100654.78
2023-04-30T00:39:42.658Z,100651.00
2023-04-30T00:40:14.084Z,100660.03
2023-04-30T00:40:45.548Z,100651.31
2023-04-30T00:41:16.959Z,100646.38
2023-04-30T00:41:48.356Z,100652.13
2023-04-30T00:42:19.851Z,100655.16
2023-04-30T00:42:51.277Z,100651.50
2023-04-30T00:43:22.782Z,100658.38
2023-04-30T00:43:57.009Z,100655.97
2023-04-30T00:44:28.443Z,100651.88
2023-04-30T00:44:59.857Z,100652.75
2023-04-30T00:45:31.392Z,100655.22
2023-04-30T00:46:02.962Z,100652.19
2023-04-30T00:46:34.464Z,100654.53
2023-04-30T00:47:05.869Z,100653.22
2023-04-30T00:47:37.393Z,100656.69
2023-04-30T00:48:08.848Z,100649.03
2023-04-30T00:48:40.241Z,100654.16
2023-04-30T00:49:11.709Z,100653.34
2023-04-30T00:49:43.109Z,100654.06
2023-04-30T00:50:14.546Z,100651.19
2023-04-30T00:50:45.975Z,100654.41
2023-04-30T00:51:17.492Z,100660.34
2023-04-30T00:51:48.944Z,100653.34
2023-04-30T00:52:20.361Z,100654.72
2023-04-30T00:52:51.900Z,100652.84
2023-04-30T00:53:23.344Z,100657.19
2023-04-30T00:53:54.799Z,100656.19
2023-04-30T00:54:26.189Z,100651.81
2023-04-30T00:54:57.719Z,100657.19
2023-04-30T00:55:29.141Z,100649.28
2023-04-30T00:56:00.574Z,100656.88
2023-04-30T00:56:32.055Z,100658.47
2023-04-30T00:57:03.491Z,100650.63
2023-04-30T00:57:34.970Z,100656.13
2023-04-30T00:58:06.438Z,100655.59
2023-04-30T00:58:37.841Z,100659.59
2023-04-30T00:59:10.959Z,100661.78
2023-04-30T00:59:45.606Z,100650.94
2023-04-30T01:00:19.751Z,100658.88
2023-04-30T01:00:51.190Z,100655.66
2023-04-30T01:01:22.715Z,100652.59
2023-04-30T01:01:56.943Z,100660.91
2023-04-30T01:02:28.463Z,100654.66
2023-04-30T01:02:59.997Z,100662.00
2023-04-30T01:03:33.441Z,100656.78
2023-04-30T01:04:04.977Z,100659.19
2023-04-30T01:04:36.416Z,100655.13
2023-04-30T01:05:07.848Z,100654.00
2023-04-30T01:05:39.301Z,100652.44
2023-04-30T01:06:10.751Z,100658.47
2023-04-30T01:06:44.738Z,100651.59
2023-04-30T01:07:16.337Z,100655.06
2023-04-30T01:07:47.790Z,100653.13
2023-04-30T01:08:21.528Z,100653.19
2023-04-30T01:08:53.245Z,100655.97
2023-04-30T01:09:24.680Z,100652.09
2023-04-30T01:09:56.282Z,100651.59
2023-04-30T01:10:27.869Z,100660.25
2023-04-30T01:10:59.288Z,100655.97
2023-04-30T01:11:30.700Z,100648.31
2023-04-30T01:12:02.147Z,100658.09
2023-04-30T01:12:33.567Z,100659.75
2023-04-30T01:13:04.962Z,100655.38
2023-04-30T01:13:36.535Z,100658.94
2023-04-30T01:14:08.012Z,100654.56
2023-04-30T01:14:39.491Z,100657.63
2023-04-30T01:15:10.958Z,100660.44
2023-04-30T01:15:48.093Z,100655.84
2023-04-30T01:16:19.604Z,100651.78
2023-04-30T01:16:51.065Z,100655.91
2023-04-30T01:17:24.024Z,100652.94
2023-04-30T01:17:55.625Z,100644.78
2023-04-30T01:18:27.298Z,100650.78
2023-04-30T01:18:58.889Z,100648.88
2023-04-30T01:19:30.412Z,100648.25
2023-04-30T01:20:01.872Z,100652.69
2023-04-30T01:20:33.297Z,100651.03
2023-04-30T01:21:04.786Z,100652.09
2023-04-30T01:21:36.235Z,100648.31
2023-04-30T01:22:07.751Z,100650.53
2023-04-30T01:22:39.236Z,100646.19
2023-04-30T01:23:10.630Z,100647.00
2023-04-30T01:23:42.045Z,100649.41
2023-04-30T01:24:13.453Z,100645.78
2023-04-30T01:24:44.920Z,100646.13
2023-04-30T01:25:16.350Z,100641.75
2023-04-30T01:25:47.802Z,100646.81
2023-04-30T01:26:19.241Z,100645.97
2023-04-30T01:26:50.694Z,100644.84
2023-04-30T01:27:22.090Z,100641.38
2023-04-30T01:27:56.013Z,100647.63
2023-04-30T01:28:27.459Z,100651.72
2023-04-30T01:28:58.940Z,100643.84
2023-04-30T01:29:30.412Z,100643.91
2023-04-30T01:30:01.965Z,100652.75
2023-04-30T01:30:33.457Z,100642.94
2023-04-30T01:31:04.906Z,100647.81
2023-04-30T01:31:36.426Z,100645.34
2023-04-30T01:32:07.906Z,100649.44
2023-04-30T01:32:39.399Z,100647.06
2023-04-30T01:33:11.087Z,100648.13
2023-04-30T01:33:42.596Z,100645.41
2023-04-30T01:34:14.242Z,100645.66
2023-04-30T01:34:45.713Z,100646.22
2023-04-30T01:35:17.143Z,100653.06
2023-04-30T01:35:48.549Z,100640.50
2023-04-30T01:36:19.963Z,100644.09
2023-04-30T01:36:51.357Z,100645.97
2023-04-30T01:37:22.866Z,100645.97
2023-04-30T01:37:54.270Z,100649.84
2023-04-30T01:38:25.715Z,100653.56
2023-04-30T01:38:57.155Z,100644.84
2023-04-30T01:39:28.620Z,100650.91
2023-04-30T01:40:00.009Z,100648.75
2023-04-30T01:40:31.646Z,100656.09
2023-04-30T01:41:03.089Z,100651.53
2023-04-30T01:41:34.656Z,100652.38
2023-04-30T01:42:06.080Z,100659.13
2023-04-30T01:42:37.589Z,100653.19
2023-04-30T01:43:09.036Z,100650.72
2023-04-30T01:43:40.576Z,100650.91
2023-04-30T01:44:11.985Z,100650.84
2023-04-30T01:44:43.383Z,100650.91
2023-04-30T01:45:14.828Z,100656.03
2023-04-30T01:45:46.320Z,100651.84
2023-04-30T01:46:17.824Z,100651.84
2023-04-30T01:46:49.220Z,100648.50
2023-04-30T01:47:20.732Z,100650.13
2023-04-30T01:47:52.212Z,100649.63
2023-04-30T01:48:23.664Z,100653.41
2023-04-30T01:48:55.164Z,100644.78
2023-04-30T01:49:26.660Z,100648.00
2023-04-30T01:49:58.090Z,100649.63
2023-04-30T01:50:29.538Z,100653.66
2023-04-30T01:51:01.206Z,100649.97
2023-04-30T01:51:32.684Z,100655.94
2023-04-30T01:52:04.118Z,100650.28
2023-04-30T01:52:35.659Z,100647.31
2023-04-30T01:53:07.148Z,100653.56
2023-04-30T01:53:38.583Z,100651.28
2023-04-30T01:54:10.494Z,100651.03
2023-04-30T01:54:41.878Z,100651.09
2023-04-30T01:55:13.304Z,100653.88
2023-04-30T01:55:44.768Z,100655.38
2023-04-30T01:56:16.292Z,100654.88
2023-04-30T01:56:47.738Z,100658.66
2023-04-30T01:57:19.186Z,100655.69
2023-04-30T01:57:50.657Z,100656.47
2023-04-30T01:58:22.085Z,100655.69
2023-04-30T01:58:53.636Z,100653.06
2023-04-30T01:59:25.091Z,100660.13
2023-04-30T01:59:56.791Z,100659.16
2023-04-30T02:00:28.353Z,100657.03
2023-04-30T02:00:59.733Z,100661.13
2023-04-30T02:01:31.321Z,100662.28
2023-04-30T02:02:02.853Z,100663.53
2023-04-30T02:02:34.384Z,100653.75
2023-04-30T02:03:06.008Z,100653.91
2023-04-30T02:03:37.770Z,100658.03
2023-04-30T02:04:09.264Z,100657.47
2023-04-30T02:04:40.781Z,100658.66
2023-04-30T02:05:12.236Z,100660.81
2023-04-30T02:05:43.646Z,100652.41
2023-04-30T02:06:15.097Z,100655.88
2023-04-30T02:06:46.803Z,100661.31
2023-04-30T02:07:18.340Z,100659.66
2023-04-30T02:07:49.788Z,100657.78
2023-04-30T02:08:24.229Z,100653.03
2023-04-30T02:08:55.725Z,100651.38
2023-04-30T02:09:27.126Z,100653.78
2023-04-30T02:10:00.067Z,100649.50
2023-04-30T02:10:31.524Z,100657.06
2023-04-30T02:11:03.010Z,100654.03
2023-04-30T02:11:36.023Z,100655.59
2023-04-30T02:12:08.216Z,100648.84
2023-04-30T02:12:39.734Z,100653.63
2023-04-30T02:13:11.117Z,100647.22
2023-04-30T02:13:42.637Z,100655.34
2023-04-30T02:14:14.084Z,100652.38
2023-04-30T02:14:45.542Z,100657.25
2023-04-30T02:15:16.973Z,100649.50
2023-04-30T02:15:48.450Z,100655.44
2023-04-30T02:16:19.911Z,100650.50
2023-04-30T02:16:51.391Z,100646.72
2023-04-30T02:17:22.934Z,100656.00
2023-04-30T02:17:54.381Z,100655.19
2023-04-30T02:18:25.846Z,100645.66
2023-04-30T02:18:57.239Z,100655.44
2023-04-30T02:19:28.674Z,100655.81
2023-04-30T02:20:00.113Z,100653.28
2023-04-30T02:20:31.585Z,100652.78
2023-04-30T02:21:02.958Z,100656.25
2023-04-30T02:21:34.354Z,100646.72
2023-04-30T02:22:05.897Z,100656.25
2023-04-30T02:22:37.380Z,100653.03
2023-04-30T02:23:08.814Z,100659.78
2023-04-30T02:23:40.206Z,100661.91
2023-04-30T02:24:11.701Z,100657.81
2023-04-30T02:24:43.118Z,100657.63
2023-04-30T02:25:14.565Z,100658.63
2023-04-30T02:25:46.072Z,100658.06
2023-04-30T02:26:17.577Z,100653.78
2023-04-30T02:26:49.062Z,100652.72
2023-04-30T02:27:20.555Z,100659.53
2023-04-30T02:27:52.121Z,100661.16
2023-04-30T02:28:23.620Z,100657.63
2023-04-30T02:28:55.131Z,100658.47
2023-04-30T02:29:26.676Z,100657.88
2023-04-30T02:29:58.124Z,100658.13
2023-04-30T02:30:29.594Z,100657.31
2023-04-30T02:31:01.017Z,100662.91
2023-04-30T02:31:32.516Z,100663.00
2023-04-30T02:32:04.096Z,100654.78
2023-04-30T02:32:35.774Z,100662.41
2023-04-30T02:33:07.327Z,100661.03
2023-04-30T02:33:38.832Z,100661.78
2023-04-30T02:34:10.245Z,100664.00
2023-04-30T02:34:41.739Z,100668.28
2023-04-30T02:35:13.178Z,100663.50
2023-04-30T02:35:44.633Z,100667.53
2023-04-30T02:36:16.033Z,100672.44
2023-04-30T02:36:47.495Z,100669.41
2023-04-30T02:37:18.922Z,100670.81
2023-04-30T02:37:50.382Z,100667.28
2023-04-30T02:38:21.838Z,100669.50
2023-04-30T02:38:53.251Z,100672.19
2023-04-30T02:39:24.695Z,100671.31
2023-04-30T02:39:56.451Z,100669.84
2023-04-30T02:40:28.101Z,100670.16
2023-04-30T02:40:59.580Z,100665.81
2023-04-30T02:41:31.011Z,100666.63
2023-04-30T02:42:02.428Z,100671.72
2023-04-30T02:42:33.888Z,100671.47
2023-04-30T02:43:05.360Z,100670.41
2023-04-30T02:43:36.992Z,100672.81
2023-04-30T02:44:08.402Z,100673.63
2023-04-30T02:44:39.847Z,100662.19
2023-04-30T02:45:11.299Z,100672.31
2023-04-30T02:45:45.177Z,100672.88
2023-04-30T02:46:16.644Z,100671.88
2023-04-30T02:46:48.188Z,100668.66
2023-04-30T02:47:19.661Z,100665.38
2023-04-30T02:47:51.191Z,100670.47
2023-04-30T02:48:22.666Z,100669.09
2023-04-30T02:48:54.083Z,100666.88
2023-04-30T02:49:25.530Z,100667.44
2023-04-30T02:49:57.264Z,100669.03
2023-04-30T02:50:28.774Z,100670.72
2023-04-30T02:51:00.200Z,100665.81
2023-04-30T02:51:31.650Z,100664.50
2023-04-30T02:52:03.002Z,100665.56
2023-04-30T02:52:34.490Z,100669.91
2023-04-30T02:53:05.938Z,100665.06
2023-04-30T02:53:37.358Z,100665.31
2023-04-30T02:54:09.194Z,100668.28
2023-04-30T02:54:40.674Z,100663.34
2023-04-30T02:55:12.048Z,100661.59
2023-04-30T02:55:43.520Z,100667.59
2023-04-30T02:56:14.990Z,100666.44
2023-04-30T02:56:46.377Z,100658.38
2023-04-30T02:57:18.066Z,100664.25
2023-04-30T02:57:49.491Z,100666.28
2023-04-30T02:58:20.933Z,100663.50
2023-04-30T02:58:52.342Z,100667.03
2023-04-30T02:59:23.907Z,100661.78
2023-04-30T02:59:55.614Z,100662.09
2023-04-30T03:00:27.266Z,100661.19
2023-04-30T03:00:58.809Z,100660.94
2023-04-30T03:01:30.270Z,100663.75
2023-04-30T03:02:01.818Z,100663.75
2023-04-30T03:02:33.390Z,100667.53
2023-04-30T03:03:05.057Z,100674.03
2023-04-30T03:03:36.659Z,100664.00
2023-04-30T03:04:08.161Z,100667.59
2023-04-30T03:04:39.677Z,100670.31
2023-04-30T03:05:11.141Z,100668.34
2023-04-30T03:05:42.629Z,100665.38
2023-04-30T03:06:14.073Z,100670.00
2023-04-30T03:06:45.670Z,100666.19
2023-04-30T03:07:17.203Z,100672.13
2023-04-30T03:07:48.873Z,100676.22
2023-04-30T03:08:20.282Z,100676.31
2023-04-30T03:08:51.773Z,100668.75
2023-04-30T03:09:23.298Z,100669.50
2023-04-30T03:09:55.180Z,100673.59
2023-04-30T03:10:26.809Z,100678.28
2023-04-30T03:10:58.245Z,100675.00
2023-04-30T03:11:29.708Z,100677.69
2023-04-30T03:12:01.156Z,100672.78
2023-04-30T03:12:32.653Z,100675.00
2023-04-30T03:13:04.134Z,100676.81
2023-04-30T03:13:35.633Z,100674.66
2023-04-30T03:14:07.095Z,100676.63
2023-04-30T03:14:38.608Z,100677.69
2023-04-30T03:15:12.640Z,100674.09
2023-04-30T03:15:44.062Z,100676.81
2023-04-30T03:16:15.609Z,100664.50
2023-04-30T03:16:47.099Z,100673.03
2023-04-30T03:17:18.629Z,100670.63
2023-04-30T03:17:50.092Z,100660.09
2023-04-30T03:18:21.560Z,100663.63
2023-04-30T03:18:52.942Z,100663.38
2023-04-30T03:19:24.502Z,100659.28
2023-04-30T03:19:56.179Z,100669.56
2023-04-30T03:20:27.759Z,100665.72
2023-04-30T03:20:59.209Z,100656.88
2023-04-30T03:21:30.698Z,100659.59
2023-04-30T03:22:02.110Z,100659.09
2023-04-30T03:22:33.530Z,100656.06
2023-04-30T03:23:04.965Z,100662.00
2023-04-30T03:23:36.367Z,100658.72
2023-04-30T03:24:07.874Z,100654.09
2023-04-30T03:24:39.275Z,100661.91
2023-04-30T03:25:10.726Z,100660.47
2023-04-30T03:25:42.145Z,100651.19
2023-04-30T03:26:13.616Z,100658.06
2023-04-30T03:26:45.036Z,100653.78
2023-04-30T03:27:16.582Z,100656.00
2023-04-30T03:27:47.971Z,100659.84
2023-04-30T03:28:19.452Z,100663.56
2023-04-30T03:28:50.891Z,100661.66
2023-04-30T03:29:22.292Z,100667.09
2023-04-30T03:29:54.009Z,100661.91
2023-04-30T03:30:25.689Z,100658.63
2023-04-30T03:30:57.125Z,100659.53
2023-04-30T03:31:28.635Z,100664.47
2023-04-30T03:32:00.268Z,100659.78
2023-04-30T03:32:31.897Z,100661.41
2023-04-30T03:33:05.230Z,100662.00
2023-04-30T03:33:36.747Z,100661.25
2023-04-30T03:34:08.252Z,100661.25
2023-04-30T03:34:39.644Z,100664.78
2023-04-30T03:35:11.035Z,100661.00
2023-04-30T03:35:42.450Z,100664.22
2023-04-30T03:36:13.913Z,100655.75
2023-04-30T03:36:45.319Z,100666.84
2023-04-30T03:37:16.868Z,100661.41
2023-04-30T03:37:48.236Z,100658.97
2023-04-30T03:38:19.732Z,100672.84
2023-04-30T03:38:51.166Z,100665.53
2023-04-30T03:39:22.591Z,100667.09
2023-04-30T03:39:54.257Z,100663.50
2023-04-30T03:40:28.803Z,100672.28
2023-04-30T03:41:02.808Z,100661.50
2023-04-30T03:41:34.248Z,100663.97
2023-04-30T03:42:05.744Z,100657.63
2023-04-30T03:42:37.222Z,100661.00
2023-04-30T03:43:08.605Z,100657.31
2023-04-30T03:43:39.987Z,100653.53
2023-04-30T03:44:11.518Z,100659.84
2023-04-30T03:44:42.978Z,100656.00
2023-04-30T03:45:14.468Z,100654.03
2023-04-30T03:45:45.963Z,100656.25
2023-04-30T03:46:17.565Z,100665.38
2023-04-30T03:46:49.014Z,100658.56
2023-04-30T03:47:23.274Z,100653.28
2023-04-30T03:47:56.957Z,100657.31
2023-04-30T03:48:28.644Z,100652.47
2023-04-30T03:49:00.070Z,100654.94
2023-04-30T03:49:31.575Z,100658.72
2023-04-30T03:50:02.979Z,100653.78
2023-04-30T03:50:34.354Z,100657.06
2023-04-30T03:51:05.858Z,100657.88
2023-04-30T03:51:37.288Z,100656.56
2023-04-30T03:52:08.835Z,100650.25
2023-04-30T03:52:40.248Z,100645.91
2023-04-30T03:53:11.798Z,100656.00
2023-04-30T03:53:43.258Z,100650.81
2023-04-30T03:54:14.742Z,100655.09
2023-04-30T03:54:46.147Z,100651.88
2023-04-30T03:55:17.583Z,100653.78
2023-04-30T03:55:49.098Z,100657.00
2023-04-30T03:56:20.603Z,100658.72
2023-04-30T03:56:52.016Z,100650.75
2023-04-30T03:57:23.542Z,100653.53
2023-04-30T03:57:54.954Z,100653.22
2023-04-30T03:58:26.339Z,100654.22
2023-04-30T03:58:57.776Z,100657.41
2023-04-30T03:59:29.194Z,100657.25
2023-04-30T04:00:00.669Z,100660.53
2023-04-30T04:00:32.077Z,100661.84
2023-04-30T04:01:03.523Z,100662.16
2023-04-30T04:01:34.947Z,100655.84
2023-04-30T04:02:06.469Z,100662.34
2023-04-30T04:02:38.042Z,100661.78
2023-04-30T04:03:09.610Z,100658.81
2023-04-30T04:03:41.073Z,100661.44
2023-04-30T04:04:12.654Z,100664.81
2023-04-30T04:04:44.104Z,100664.00
2023-04-30T04:05:15.626Z,100667.94
2023-04-30T04:05:47.031Z,100664.97
2023-04-30T04:06:18.582Z,100664.50
2023-04-30T04:06:50.010Z,100666.31
2023-04-30T04:07:21.422Z,100665.31
2023-04-30T04:07:52.886Z,100665.22
2023-04-30T04:08:24.275Z,100675.25
2023-04-30T04:08:55.706Z,100668.16
2023-04-30T04:09:27.140Z,100659.50
2023-04-30T04:09:58.612Z,100664.09
2023-04-30T04:10:30.018Z,100666.06
2023-04-30T04:11:01.468Z,100660.25
2023-04-30T04:11:32.923Z,100669.28
2023-04-30T04:12:04.320Z,100668.06
2023-04-30T04:12:38.312Z,100667.81
2023-04-30T04:13:09.840Z,100668.66
2023-04-30T04:13:41.307Z,100665.44
2023-04-30T04:14:12.820Z,100666.75
2023-04-30T04:14:44.228Z,100662.72
2023-04-30T04:15:15.704Z,100667.56
2023-04-30T04:15:47.131Z,100668.69
2023-04-30T04:16:18.648Z,100664.88
2023-04-30T04:16:50.100Z,100668.66
2023-04-30T04:17:21.790Z,100668.97
2023-04-30T04:17:53.306Z,100667.63
2023-04-30T04:18:24.909Z,100672.81
2023-04-30T04:18:56.368Z,100670.91
2023-04-30T04:19:27.804Z,100670.97
2023-04-30T04:19:59.248Z,100673.13
2023-04-30T04:20:31.787Z,100673.13
2023-04-30T04:21:03.245Z,100678.22
2023-04-30T04:21:34.822Z,100673.88
2023-04-30T04:22:06.336Z,100678.31
2023-04-30T04:22:40.387Z,100674.03
2023-04-30T04:23:11.863Z,100676.66
2023-04-30T04:23:43.330Z,100672.06
2023-04-30T04:24:14.758Z,100679.13
2023-04-30T04:24:46.175Z,100683.97
2023-04-30T04:25:17.618Z,100685.28
2023-04-30T04:25:49.071Z,100688.25
2023-04-30T04:26:20.477Z,100681.25
2023-04-30T04:26:51.897Z,100685.03
2023-04-30T04:27:25.218Z,100681.25
2023-04-30T04:27:56.708Z,100687.75
2023-04-30T04:28:28.189Z,100682.25
2023-04-30T04:28:59.671Z,100690.34
2023-04-30T04:29:31.104Z,100687.44
2023-04-30T04:30:02.508Z,100687.44
2023-04-30T04:30:33.983Z,100687.19
2023-04-30T04:31:05.349Z,100689.03
2023-04-30T04:31:36.894Z,100688.50
2023-04-30T04:32:08.438Z,100686.56
2023-04-30T04:32:39.871Z,100687.97
2023-04-30T04:33:11.368Z,100684.72
2023-04-30T04:33:42.806Z,100682.09
2023-04-30T04:34:14.259Z,100680.75
2023-04-30T04:34:45.694Z,100689.41
2023-04-30T04:35:17.156Z,100691.13
2023-04-30T04:35:51.365Z,100692.25
2023-04-30T04:36:22.770Z,100684.53
2023-04-30T04:36:54.326Z,100689.22
2023-04-30T04:37:25.841Z,100687.25
2023-04-30T04:37:57.340Z,100688.31
2023-04-30T04:38:28.801Z,100691.53
2023-04-30T04:39:00.190Z,100691.28
2023-04-30T04:39:31.654Z,100695.31
2023-04-30T04:40:03.064Z,100693.69
2023-04-30T04:40:34.466Z,100695.28
2023-04-30T04:41:05.856Z,100694.19
2023-04-30T04:41:37.292Z,100695.03
2023-04-30T04:42:08.729Z,100700.16
2023-04-30T04:42:40.289Z,100695.81
2023-04-30T04:43:11.801Z,100694.19
2023-04-30T04:43:45.779Z,100699.06
2023-04-30T04:44:17.189Z,100699.53
2023-04-30T04:44:48.675Z,100699.63
2023-04-30T04:45:20.120Z,100698.81
2023-04-30T04:45:51.564Z,100698.84
2023-04-30T04:46:23.149Z,100696.91
2023-04-30T04:46:57.459Z,100697.47
2023-04-30T04:47:28.946Z,100693.94
2023-04-30T04:48:00.445Z,100696.38
2023-04-30T04:48:31.888Z,100695.66
2023-04-30T04:49:03.375Z,100692.75
2023-04-30T04:49:34.925Z,100693.75
2023-04-30T04:50:06.344Z,100694.50
2023-04-30T04:50:37.753Z,100692.31
2023-04-30T04:51:09.181Z,100690.47
2023-04-30T04:51:40.624Z,100699.19
2023-04-30T04:52:12.037Z,100686.44
2023-04-30T04:52:43.437Z,100692.75
2023-04-30T04:53:15.002Z,100695.22
2023-04-30T04:53:46.383Z,100692.44
2023-04-30T04:54:17.788Z,100701.16
2023-04-30T04:54:49.194Z,100700.66
2023-04-30T04:55:20.608Z,100696.72
2023-04-30T04:55:52.098Z,100689.97
2023-04-30T04:56:23.704Z,100696.28
2023-04-30T04:56:55.133Z,100701.41
2023-04-30T04:57:26.628Z,100698.19
2023-04-30T04:57:58.066Z,100693.84
2023-04-30T04:58:29.551Z,100689.97
2023-04-30T04:59:01.029Z,100694.41
2023-04-30T04:59:32.489Z,100697.38
2023-04-30T05:00:03.882Z,100698.69
2023-04-30T05:00:35.258Z,100703.94
2023-04-30T05:01:06.698Z,100700.41
2023-04-30T05:01:38.224Z,100697.03
2023-04-30T05:02:10.175Z,100700.00
2023-04-30T05:02:41.913Z,100698.34
2023-04-30T05:03:13.550Z,100702.47
2023-04-30T05:03:45.170Z,100699.75
2023-04-30T05:04:16.780Z,100693.84
2023-04-30T05:04:48.167Z,100696.53
2023-04-30T05:05:19.681Z,100704.59
2023-04-30T05:05:51.096Z,100699.44
2023-04-30T05:06:22.614Z,100697.03
2023-04-30T05:06:54.069Z,100698.19
2023-04-30T05:07:27.016Z,100696.22
2023-04-30T05:07:58.436Z,100697.84
2023-04-30T05:08:29.934Z,100693.50
2023-04-30T05:09:01.350Z,100697.84
2023-04-30T05:09:32.916Z,100705.81
2023-04-30T05:10:04.350Z,100703.38
2023-04-30T05:10:35.860Z,100699.25
2023-04-30T05:11:09.895Z,100699.19
2023-04-30T05:11:41.348Z,100702.97
2023-04-30T05:12:12.876Z,100703.28
2023-04-30T05:12:44.317Z,100702.28
2023-04-30T05:13:15.797Z,100697.63
2023-04-30T05:13:47.188Z,100702.06
2023-04-30T05:14:18.660Z,100697.84
2023-04-30T05:14:50.091Z,100699.00
2023-04-30T05:15:21.536Z,100701.72
2023-04-30T05:15:53.057Z,100701.41
2023-04-30T05:16:24.774Z,100702.78
2023-04-30T05:16:56.238Z,100701.47
2023-04-30T05:17:27.720Z,100700.41
2023-04-30T05:18:02.291Z,100706.66
2023-04-30T05:18:33.758Z,100699.75
2023-04-30T05:19:05.157Z,100697.38
2023-04-30T05:19:36.616Z,100705.25
2023-04-30T05:20:08.102Z,100703.63
2023-04-30T05:20:39.578Z,100709.03
2023-04-30T05:21:11.031Z,100700.81
2023-04-30T05:21:42.500Z,100702.78
2023-04-30T05:22:13.966Z,100700.31
2023-04-30T05:22:45.534Z,100704.59
2023-04-30T05:23:16.978Z,100702.78
2023-04-30T05:23:51.099Z,100700.31
2023-04-30T05:24:22.560Z,100699.81
2023-04-30T05:24:53.998Z,100700.81
2023-04-30T05:25:25.441Z,100702.97
2023-04-30T05:25:56.902Z,100696.97
2023-04-30T05:26:28.337Z,100702.38
2023-04-30T05:26:59.790Z,100697.84
2023-04-30T05:27:31.292Z,100702.72
2023-04-30T05:28:02.741Z,100704.44
2023-04-30T05:28:34.233Z,100705.81
2023-04-30T05:29:05.616Z,100708.03
2023-04-30T05:29:37.083Z,100701.16
2023-04-30T05:30:08.511Z,100700.56
2023-04-30T05:30:39.956Z,100702.03
2023-04-30T05:31:11.353Z,100703.94
2023-04-30T05:31:42.804Z,100706.16
2023-04-30T05:32:14.480Z,100707.22
2023-04-30T05:32:46.052Z,100703.28
2023-04-30T05:33:17.559Z,100706.75
2023-04-30T05:33:49.031Z,100704.34
2023-04-30T05:34:20.457Z,100711.19
2023-04-30T05:34:51.900Z,100707.31
2023-04-30T05:35:23.413Z,100708.88
2023-04-30T05:35:54.828Z,100706.75
2023-04-30T05:36:26.260Z,100700.91
2023-04-30T05:36:57.676Z,100709.38
2023-04-30T05:37:29.066Z,100706.31
2023-04-30T05:38:00.576Z,100706.66
2023-04-30T05:38:31.987Z,100706.25
2023-04-30T05:39:03.427Z,100712.56
2023-04-30T05:39:34.852Z,100713.41
2023-04-30T05:40:06.295Z,100706.25
2023-04-30T05:40:39.486Z,100704.44
2023-04-30T05:41:10.878Z,100714.53
2023-04-30T05:41:42.406Z,100708.28
2023-04-30T05:42:13.792Z,100708.53
2023-04-30T05:42:45.209Z,100709.94
2023-04-30T05:43:16.694Z,100705.06
2023-04-30T05:43:48.152Z,100711.06
2023-04-30T05:44:19.556Z,100712.66
2023-04-30T05:44:51.031Z,100706.56
2023-04-30T05:45:23.945Z,100713.47
2023-04-30T05:45:55.353Z,100715.94
2023-04-30T05:46:26.889Z,100713.78
2023-04-30T05:46:58.435Z,100721.69
2023-04-30T05:47:29.860Z,100718.47
2023-04-30T05:48:01.411Z,100717.91
2023-04-30T05:48:35.794Z,100715.19
2023-04-30T05:49:07.199Z,100716.75
2023-04-30T05:49:38.641Z,100717.31
2023-04-30T05:50:10.179Z,100718.97
2023-04-30T05:50:41.720Z,100720.53
2023-04-30T05:51:13.139Z,100710.00
2023-04-30T05:51:44.532Z,100722.00
2023-04-30T05:52:16.026Z,100715.25
2023-04-30T05:52:47.430Z,100713.53
2023-04-30T05:53:18.942Z,100714.38
2023-04-30T05:53:50.457Z,100718.91
2023-04-30T05:54:21.923Z,100720.03
2023-04-30T05:54:53.317Z,100717.75
2023-04-30T05:55:24.784Z,100718.16
2023-04-30T05:55:56.212Z,100711.06
2023-04-30T05:56:27.733Z,100717.91
2023-04-30T05:56:59.136Z,100717.91
2023-04-30T05:57:30.587Z,100720.13
2023-04-30T05:58:02.022Z,100717.41
2023-04-30T05:58:33.464Z,100716.59
2023-04-30T05:59:04.967Z,100725.47
2023-04-30T05:59:36.385Z,100724.47
2023-04-30T06:00:07.811Z,100718.78
2023-04-30T06:00:39.281Z,100723.81